South Branch, Michigan
Current Conditions -  °F | °C
As of 11:13 AM on Sunday 25 Jan 2015 (Local Time) from KOSC Reporting Station
Overcast Overcast  
Wind Chill:   Ceiling: 2400
Heat Index: 18°   Visibility: 10mi
Dew Point:   Wind: 14mph
Humidity: 70%   Direction: 50°NE
Pressure: 30"   Gusts: NA
Location:  44.47°N, 83.89°W
Report Text: KOSC 251613Z AUTO 05012KT 10SM OVC024 M08/M12 A3000 RMK AO2 T10801126
Loading
Personal Weather Stations






























Interactive Weather Map New forecast layout! Learn more

10-Day Weather Forecast

Advertisements
Track Severe Weather on mobile